sensor_id;sensor_type;location;lat;lon;timestamp;pressure;altitude;pressure_sealevel;temperature;humidity
56198;BME280;42700;42.524;12.052;2023-04-24T00:02:20;83960.50;;;15.18;100.00
56198;BME280;42700;42.524;12.052;2023-04-24T00:04:45;84466.31;;;15.25;100.00
56198;BME280;42700;42.524;12.052;2023-04-24T00:07:11;84452.41;;;15.19;100.00
56198;BME280;42700;42.524;12.052;2023-04-24T00:09:38;84589.25;;;15.14;100.00
56198;BME280;42700;42.524;12.052;2023-04-24T00:12:03;84973.56;;;15.18;100.00
56198;BME280;42700;42.524;12.052;2023-04-24T00:14:30;84844.06;;;15.09;100.00
56198;BME280;42700;42.524;12.052;2023-04-24T00:16:55;85502.94;;;15.19;100.00
56198;BME280;42700;42.524;12.052;2023-04-24T00:19:21;85378.97;;;15.07;100.00
56198;BME280;42700;42.524;12.052;2023-04-24T00:21:47;85607.84;;;15.03;100.00
56198;BME280;42700;42.524;12.052;2023-04-24T00:24:15;85861.34;;;15.05;100.00
56198;BME280;42700;42.524;12.052;2023-04-24T00:26:41;86158.75;;;15.06;100.00
56198;BME280;42700;42.524;12.052;2023-04-24T00:29:06;86449.41;;;15.06;100.00
56198;BME280;42700;42.524;12.052;2023-04-24T00:31:32;86859.94;;;15.09;100.00
56198;BME280;42700;42.524;12.052;2023-04-24T00:34:00;86780.50;;;14.99;100.00
56198;BME280;42700;42.524;12.052;2023-04-24T00:36:25;87248.06;;;15.05;100.00
56198;BME280;42700;42.524;12.052;2023-04-24T00:38:52;87395.38;;;15.00;100.00
56198;BME280;42700;42.524;12.052;2023-04-24T00:41:18;87636.00;;;15.04;100.00
56198;BME280;42700;42.524;12.052;2023-04-24T00:43:44;88020.13;;;15.04;100.00
56198;BME280;42700;42.524;12.052;2023-04-24T00:46:10;88148.91;;;15.04;100.00
56198;BME280;42700;42.524;12.052;2023-04-24T00:48:37;88814.91;;;15.15;100.00
56198;BME280;42700;42.524;12.052;2023-04-24T00:51:02;88514.88;;;15.03;100.00
56198;BME280;42700;42.524;12.052;2023-04-24T00:53:28;89427.06;;;15.24;100.00
56198;BME280;42700;42.524;12.052;2023-04-24T00:55:53;89738.25;;;15.25;100.00
56198;BME280;42700;42.524;12.052;2023-04-24T00:58:19;89952.22;;;15.24;100.00
56198;BME280;42700;42.524;12.052;2023-04-24T01:00:45;90045.69;;;15.20;100.00
56198;BME280;42700;42.524;12.052;2023-04-24T01:03:11;90096.47;;;15.13;100.00
56198;BME280;42700;42.524;12.052;2023-04-24T01:05:38;90934.09;;;15.30;100.00
56198;BME280;42700;42.524;12.052;2023-04-24T01:08:03;90945.16;;;15.29;100.00
56198;BME280;42700;42.524;12.052;2023-04-24T01:10:29;91296.22;;;15.31;100.00
56198;BME280;42700;42.524;12.052;2023-04-24T01:12:57;91238.50;;;15.23;100.00
56198;BME280;42700;42.524;12.052;2023-04-24T01:15:23;92054.34;;;15.42;100.00
56198;BME280;42700;42.524;12.052;2023-04-24T01:17:48;92025.22;;;15.37;100.00
56198;BME280;42700;42.524;12.052;2023-04-24T01:20:13;92070.91;;;15.31;100.00
56198;BME280;42700;42.524;12.052;2023-04-24T01:22:40;92392.38;;;15.36;100.00
56198;BME280;42700;42.524;12.052;2023-04-24T01:25:07;92491.22;;;15.36;100.00
56198;BME280;42700;42.524;12.052;2023-04-24T01:27:32;92802.75;;;15.37;100.00
56198;BME280;42700;42.524;12.052;2023-04-24T01:29:58;92888.91;;;15.34;100.00
56198;BME280;42700;42.524;12.052;2023-04-24T01:32:24;93650.66;;;15.51;100.00
56198;BME280;42700;42.524;12.052;2023-04-24T01:34:49;93920.59;;;15.56;100.00
56198;BME280;42700;42.524;12.052;2023-04-24T01:37:15;93867.72;;;15.53;100.00
56198;BME280;42700;42.524;12.052;2023-04-24T01:39:42;93704.69;;;15.39;100.00
56198;BME280;42700;42.524;12.052;2023-04-24T01:42:08;94037.41;;;15.42;100.00
56198;BME280;42700;42.524;12.052;2023-04-24T01:44:33;93813.09;;;15.31;100.00
56198;BME280;42700;42.524;12.052;2023-04-24T01:47:00;94495.91;;;15.44;100.00
56198;BME280;42700;42.524;12.052;2023-04-24T01:49:26;94422.97;;;15.39;100.00
56198;BME280;42700;42.524;12.052;2023-04-24T01:51:51;94542.75;;;15.37;100.00
56198;BME280;42700;42.524;12.052;2023-04-24T01:54:17;94764.38;;;15.38;100.00
56198;BME280;42700;42.524;12.052;2023-04-24T01:56:42;95167.84;;;15.45;100.00
56198;BME280;42700;42.524;12.052;2023-04-24T01:59:11;95302.59;;;15.44;100.00
56198;BME280;42700;42.524;12.052;2023-04-24T02:01:37;95802.81;;;15.54;100.00
56198;BME280;42700;42.524;12.052;2023-04-24T02:04:03;95758.34;;;15.48;100.00
56198;BME280;42700;42.524;12.052;2023-04-24T02:06:29;96243.69;;;15.57;100.00
56198;BME280;42700;42.524;12.052;2023-04-24T02:08:57;96391.91;;;15.56;100.00
56198;BME280;42700;42.524;12.052;2023-04-24T02:11:22;96813.25;;;15.65;100.00
56198;BME280;42700;42.524;12.052;2023-04-24T02:13:48;96982.91;;;15.64;100.00
56198;BME280;42700;42.524;12.052;2023-04-24T02:16:13;97164.91;;;15.64;100.00
56198;BME280;42700;42.524;12.052;2023-04-24T02:18:39;97364.56;;;15.65;100.00
56198;BME280;42700;42.524;12.052;2023-04-24T02:21:04;97601.75;;;15.66;100.00
56198;BME280;42700;42.524;12.052;2023-04-24T02:23:30;97710.91;;;15.64;100.00
56198;BME280;42700;42.524;12.052;2023-04-24T02:25:56;97820.84;;;15.56;100.00
56198;BME280;42700;42.524;12.052;2023-04-24T02:28:21;98720.28;;;15.48;100.00
56198;BME280;42700;42.524;12.052;2023-04-24T02:30:46;101325.00;;;15.54;100.00
56198;BME280;42700;42.524;12.052;2023-04-24T02:33:12;104227.66;;;15.59;100.00
56198;BME280;42700;42.524;12.052;2023-04-24T02:35:38;106526.59;;;15.58;100.00
56198;BME280;42700;42.524;12.052;2023-04-24T02:38:03;108545.94;;;15.59;100.00
56198;BME280;42700;42.524;12.052;2023-04-24T02:40:29;109937.84;;;15.56;100.00
56198;BME280;42700;42.524;12.052;2023-04-24T02:42:54;111083.50;;;15.58;100.00
56198;BME280;42700;42.524;12.052;2023-04-24T02:45:20;111891.41;;;15.54;100.00
56198;BME280;42700;42.524;12.052;2023-04-24T02:47:45;112674.75;;;15.53;100.00
56198;BME280;42700;42.524;12.052;2023-04-24T02:50:11;113497.09;;;15.56;100.00
56198;BME280;42700;42.524;12.052;2023-04-24T02:52:36;114028.16;;;15.56;100.00
56198;BME280;42700;42.524;12.052;2023-04-24T02:55:02;114483.03;;;15.55;100.00
56198;BME280;42700;42.524;12.052;2023-04-24T02:57:27;115118.69;;;15.58;100.00
56198;BME280;42700;42.524;12.052;2023-04-24T02:59:53;115152.13;;;15.47;100.00
56198;BME280;42700;42.524;12.052;2023-04-24T03:02:18;115652.53;;;15.45;100.00
56198;BME280;42700;42.524;12.052;2023-04-24T03:04:47;116485.81;;;15.56;100.00
56198;BME280;42700;42.524;12.052;2023-04-24T03:07:15;116673.72;;;15.49;100.00
56198;BME280;42700;42.524;12.052;2023-04-24T03:09:41;117421.84;;;15.58;100.00
56198;BME280;42700;42.524;12.052;2023-04-24T03:12:06;117804.03;;;15.59;100.00
56198;BME280;42700;42.524;12.052;2023-04-24T03:14:32;118097.34;;;15.55;100.00
56198;BME280;42700;42.524;12.052;2023-04-24T03:16:57;118342.25;;;15.51;100.00
56198;BME280;42700;42.524;12.052;2023-04-24T03:19:23;118955.69;;;15.61;100.00
56198;BME280;42700;42.524;12.052;2023-04-24T03:21:49;119043.22;;;15.55;100.00
56198;BME280;42700;42.524;12.052;2023-04-24T03:24:14;119673.75;;;15.63;100.00
56198;BME280;42700;42.524;12.052;2023-04-24T03:26:40;119938.84;;;15.61;100.00
56198;BME280;42700;42.524;12.052;2023-04-24T03:29:05;120342.53;;;15.65;100.00
56198;BME280;42700;42.524;12.052;2023-04-24T03:31:31;119999.41;;;15.51;100.00
56198;BME280;42700;42.524;12.052;2023-04-24T03:33:56;120786.00;;;15.62;100.00
56198;BME280;42700;42.524;12.052;2023-04-24T03:36:22;121134.66;;;15.68;100.00
56198;BME280;42700;42.524;12.052;2023-04-24T03:38:47;121195.84;;;15.65;100.00
56198;BME280;42700;42.524;12.052;2023-04-24T03:41:13;121298.47;;;15.63;100.00
56198;BME280;42700;42.524;12.052;2023-04-24T03:43:38;121267.75;;;15.58;100.00
56198;BME280;42700;42.524;12.052;2023-04-24T03:46:04;121745.09;;;15.65;100.00
56198;BME280;42700;42.524;12.052;2023-04-24T03:48:30;121972.03;;;15.68;100.00
56198;BME280;42700;42.524;12.052;2023-04-24T03:50:55;121990.13;;;15.65;100.00
56198;BME280;42700;42.524;12.052;2023-04-24T03:53:21;122310.09;;;15.71;100.00
56198;BME280;42700;42.524;12.052;2023-04-24T03:55:46;122571.69;;;15.72;100.00
56198;BME280;42700;42.524;12.052;2023-04-24T03:58:12;122577.34;;;15.69;100.00
56198;BME280;42700;42.524;12.052;2023-04-24T04:00:40;122468.91;;;15.60;100.00
56198;BME280;42700;42.524;12.052;2023-04-24T04:03:06;122636.09;;;15.57;100.00
56198;BME280;42700;42.524;12.052;2023-04-24T04:05:31;123024.47;;;15.63;100.00
56198;BME280;42700;42.524;12.052;2023-04-24T04:07:57;122857.56;;;15.56;100.00
56198;BME280;42700;42.524;12.052;2023-04-24T04:10:22;122861.31;;;15.50;100.00
56198;BME280;42700;42.524;12.052;2023-04-24T04:12:48;123357.22;;;15.58;100.00
56198;BME280;42700;42.524;12.052;2023-04-24T04:15:13;123560.47;;;15.63;100.00
56198;BME280;42700;42.524;12.052;2023-04-24T04:17:39;123734.75;;;15.66;100.00
56198;BME280;42700;42.524;12.052;2023-04-24T04:20:05;124007.94;;;15.74;100.00
56198;BME280;42700;42.524;12.052;2023-04-24T04:22:37;123377.91;;;15.55;100.00
56198;BME280;42700;42.524;12.052;2023-04-24T04:25:03;123811.41;;;15.64;100.00
56198;BME280;42700;42.524;12.052;2023-04-24T04:27:29;123838.53;;;15.62;100.00
56198;BME280;42700;42.524;12.052;2023-04-24T04:30:00;123998.75;;;15.66;100.00
56198;BME280;42700;42.524;12.052;2023-04-24T04:32:33;123609.13;;;15.54;100.00
56198;BME280;42700;42.524;12.052;2023-04-24T04:34:59;122757.41;;;15.20;100.00
56198;BME280;42700;42.524;12.052;2023-04-24T04:37:28;123632.66;;;15.35;100.00
56198;BME280;42700;42.524;12.052;2023-04-24T04:39:54;124088.47;;;15.47;100.00
56198;BME280;42700;42.524;12.052;2023-04-24T04:42:20;123990.66;;;15.44;100.00
56198;BME280;42700;42.524;12.052;2023-04-24T04:44:45;123857.59;;;15.37;100.00
56198;BME280;42700;42.524;12.052;2023-04-24T04:47:11;124478.25;;;15.50;100.00
56198;BME280;42700;42.524;12.052;2023-04-24T04:49:39;124567.56;;;15.52;100.00
56198;BME280;42700;42.524;12.052;2023-04-24T04:52:06;124578.34;;;15.52;100.00
56198;BME280;42700;42.524;12.052;2023-04-24T04:54:31;124462.25;;;15.48;100.00
56198;BME280;42700;42.524;12.052;2023-04-24T04:56:57;124872.31;;;15.56;100.00
56198;BME280;42700;42.524;12.052;2023-04-24T04:59:22;124941.75;;;15.57;100.00
56198;BME280;42700;42.524;12.052;2023-04-24T05:01:48;125229.81;;;15.62;100.00
56198;BME280;42700;42.524;12.052;2023-04-24T05:04:14;125338.63;;;15.63;100.00
56198;BME280;42700;42.524;12.052;2023-04-24T05:06:39;125320.50;;;15.59;100.00
56198;BME280;42700;42.524;12.052;2023-04-24T05:09:05;125302.47;;;15.53;100.00
56198;BME280;42700;42.524;12.052;2023-04-24T05:11:30;125528.00;;;15.59;100.00
56198;BME280;42700;42.524;12.052;2023-04-24T05:13:56;125849.50;;;15.65;100.00
56198;BME280;42700;42.524;12.052;2023-04-24T05:16:21;126806.75;;;15.94;100.00
56198;BME280;42700;42.524;12.052;2023-04-24T05:18:46;126644.44;;;15.92;100.00
56198;BME280;42700;42.524;12.052;2023-04-24T05:21:12;126648.69;;;15.94;100.00
56198;BME280;42700;42.524;12.052;2023-04-24T05:23:37;126249.94;;;15.84;100.00
56198;BME280;42700;42.524;12.052;2023-04-24T05:26:03;127119.88;;;16.05;100.00
56198;BME280;42700;42.524;12.052;2023-04-24T05:28:28;126964.66;;;15.98;100.00
56198;BME280;42700;42.524;12.052;2023-04-24T05:30:54;127155.63;;;15.99;100.00
56198;BME280;42700;42.524;12.052;2023-04-24T05:33:21;127150.34;;;15.94;100.00
56198;BME280;42700;42.524;12.052;2023-04-24T05:35:47;127013.59;;;15.83;100.00
56198;BME280;42700;42.524;12.052;2023-04-24T05:38:13;127592.72;;;15.94;100.00
56198;BME280;42700;42.524;12.052;2023-04-24T05:40:38;127858.13;;;15.97;100.00
56198;BME280;42700;42.524;12.052;2023-04-24T05:43:04;127726.53;;;15.94;100.00
56198;BME280;42700;42.524;12.052;2023-04-24T05:45:29;127561.50;;;15.90;100.00
56198;BME280;42700;42.524;12.052;2023-04-24T05:47:55;126621.06;;;15.61;100.00
56198;BME280;42700;42.524;12.052;2023-04-24T05:50:20;126726.09;;;15.64;100.00
56198;BME280;42700;42.524;12.052;2023-04-24T05:52:46;126800.38;;;15.68;100.00
56198;BME280;42700;42.524;12.052;2023-04-24T05:55:11;126841.31;;;15.70;100.00
56198;BME280;42700;42.524;12.052;2023-04-24T05:57:37;127091.44;;;15.76;100.00
56198;BME280;42700;42.524;12.052;2023-04-24T06:00:02;127247.22;;;15.80;100.00
56198;BME280;42700;42.524;12.052;2023-04-24T06:02:29;127228.31;;;15.80;100.00
56198;BME280;42700;42.524;12.052;2023-04-24T06:05:00;127351.25;;;15.82;100.00
56198;BME280;42700;42.524;12.052;2023-04-24T06:07:25;128257.34;;;16.13;100.00
56198;BME280;42700;42.524;12.052;2023-04-24T06:09:51;128273.50;;;16.18;100.00
56198;BME280;42700;42.524;12.052;2023-04-24T06:12:17;128312.34;;;16.21;100.00
56198;BME280;42700;42.524;12.052;2023-04-24T06:14:43;128614.09;;;16.32;100.00
56198;BME280;42700;42.524;12.052;2023-04-24T06:17:08;128647.59;;;16.35;100.00
56198;BME280;42700;42.524;12.052;2023-04-24T06:19:34;128319.81;;;16.30;100.00
56198;BME280;42700;42.524;12.052;2023-04-24T06:21:59;128503.38;;;16.37;100.00
56198;BME280;42700;42.524;12.052;2023-04-24T06:24:28;128794.47;;;16.49;100.00
56198;BME280;42700;42.524;12.052;2023-04-24T06:26:53;128823.06;;;16.56;100.00
56198;BME280;42700;42.524;12.052;2023-04-24T06:29:19;128617.81;;;16.56;100.00
56198;BME280;42700;42.524;12.052;2023-04-24T06:31:44;128343.44;;;16.54;100.00
56198;BME280;42700;42.524;12.052;2023-04-24T06:34:10;128336.91;;;16.56;100.00
56198;BME280;42700;42.524;12.052;2023-04-24T06:36:35;128511.88;;;16.65;100.00
56198;BME280;42700;42.524;12.052;2023-04-24T06:39:01;128584.25;;;16.73;100.00
56198;BME280;42700;42.524;12.052;2023-04-24T06:41:27;128244.97;;;16.69;100.00
56198;BME280;42700;42.524;12.052;2023-04-24T06:43:53;127915.56;;;16.61;100.00
56198;BME280;42700;42.524;12.052;2023-04-24T06:46:19;127445.88;;;16.53;100.00
56198;BME280;42700;42.524;12.052;2023-04-24T06:48:47;127583.38;;;16.61;100.00
56198;BME280;42700;42.524;12.052;2023-04-24T06:51:12;128086.53;;;16.79;100.00
56198;BME280;42700;42.524;12.052;2023-04-24T06:53:38;128299.88;;;16.95;100.00
56198;BME280;42700;42.524;12.052;2023-04-24T06:56:03;128023.75;;;16.91;100.00
56198;BME280;42700;42.524;12.052;2023-04-24T06:58:30;126641.25;;;16.56;100.00
56198;BME280;42700;42.524;12.052;2023-04-24T07:00:55;127005.81;;;16.70;100.00
56198;BME280;42700;42.524;12.052;2023-04-24T07:03:21;127162.72;;;16.79;100.00
56198;BME280;42700;42.524;12.052;2023-04-24T07:05:48;127085.38;;;16.83;100.00
56198;BME280;42700;42.524;12.052;2023-04-24T07:08:14;126911.53;;;16.79;100.00
56198;BME280;42700;42.524;12.052;2023-04-24T07:10:42;125908.19;;;16.54;100.00
56198;BME280;42700;42.524;12.052;2023-04-24T07:13:07;125808.91;;;16.53;100.00
56198;BME280;42700;42.524;12.052;2023-04-24T07:15:33;125828.16;;;16.57;100.00
56198;BME280;42700;42.524;12.052;2023-04-24T07:17:59;125981.19;;;16.63;100.00
56198;BME280;42700;42.524;12.052;2023-04-24T07:20:24;126741.50;;;16.94;100.00
56198;BME280;42700;42.524;12.052;2023-04-24T07:22:51;127211.94;;;17.18;100.00
56198;BME280;42700;42.524;12.052;2023-04-24T07:25:19;127276.66;;;17.23;100.00
56198;BME280;42700;42.524;12.052;2023-04-24T07:27:44;126756.94;;;17.14;100.00
56198;BME280;42700;42.524;12.052;2023-04-24T07:30:10;126835.53;;;17.24;100.00
56198;BME280;42700;42.524;12.052;2023-04-24T07:32:36;126984.28;;;17.38;100.00
56198;BME280;42700;42.524;12.052;2023-04-24T07:35:01;127148.13;;;17.55;100.00
56198;BME280;42700;42.524;12.052;2023-04-24T07:37:27;127612.56;;;17.80;100.00
56198;BME280;42700;42.524;12.052;2023-04-24T07:39:53;127762.63;;;17.98;100.00
56198;BME280;42700;42.524;12.052;2023-04-24T07:42:18;127477.78;;;18.04;100.00
56198;BME280;42700;42.524;12.052;2023-04-24T07:44:44;126892.47;;;17.96;100.00
56198;BME280;42700;42.524;12.052;2023-04-24T07:47:10;126993.72;;;18.08;100.00
56198;BME280;42700;42.524;12.052;2023-04-24T07:49:36;127158.66;;;18.28;100.00
56198;BME280;42700;42.524;12.052;2023-04-24T07:52:01;128793.13;;;19.10;100.00
56198;BME280;42700;42.524;12.052;2023-04-24T07:54:27;128997.69;;;19.48;100.00
56198;BME280;42700;42.524;12.052;2023-04-24T07:56:53;128391.69;;;19.64;100.00
56198;BME280;42700;42.524;12.052;2023-04-24T07:59:19;127569.00;;;19.63;100.00
56198;BME280;42700;42.524;12.052;2023-04-24T08:01:44;126291.06;;;19.38;100.00
56198;BME280;42700;42.524;12.052;2023-04-24T08:04:10;124103.78;;;18.80;100.00
56198;BME280;42700;42.524;12.052;2023-04-24T08:06:35;123925.09;;;18.80;100.00
56198;BME280;42700;42.524;12.052;2023-04-24T08:09:01;123477.50;;;18.73;100.00
56198;BME280;42700;42.524;12.052;2023-04-24T08:11:26;123237.00;;;18.74;100.00
56198;BME280;42700;42.524;12.052;2023-04-24T08:13:52;125057.50;;;19.47;100.00
56198;BME280;42700;42.524;12.052;2023-04-24T08:16:18;126483.09;;;20.18;100.00
56198;BME280;42700;42.524;12.052;2023-04-24T08:18:43;125277.34;;;19.96;100.00
56198;BME280;42700;42.524;12.052;2023-04-24T08:21:09;125215.22;;;20.14;100.00
56198;BME280;42700;42.524;12.052;2023-04-24T08:23:34;125649.38;;;20.45;100.00
56198;BME280;42700;42.524;12.052;2023-04-24T08:26:00;127493.97;;;21.47;100.00
56198;BME280;42700;42.524;12.052;2023-04-24T08:28:25;127181.84;;;22.04;100.00
56198;BME280;42700;42.524;12.052;2023-04-24T08:30:51;125519.78;;;21.99;100.00
56198;BME280;42700;42.524;12.052;2023-04-24T08:33:20;126091.59;;;22.78;100.00
56198;BME280;42700;42.524;12.052;2023-04-24T08:35:45;125656.25;;;23.28;100.00
56198;BME280;42700;42.524;12.052;2023-04-24T08:38:10;124300.16;;;23.65;100.00
56198;BME280;42700;42.524;12.052;2023-04-24T08:40:36;121410.53;;;23.08;100.00
56198;BME280;42700;42.524;12.052;2023-04-24T08:43:02;118504.16;;;22.26;100.00
56198;BME280;42700;42.524;12.052;2023-04-24T08:45:28;117485.53;;;22.00;100.00
56198;BME280;42700;42.524;12.052;2023-04-24T08:47:54;114949.19;;;21.10;100.00
56198;BME280;42700;42.524;12.052;2023-04-24T08:50:20;115150.34;;;21.14;100.00
56198;BME280;42700;42.524;12.052;2023-04-24T08:52:45;117460.94;;;21.92;100.00
56198;BME280;42700;42.524;12.052;2023-04-24T08:55:12;115854.53;;;21.44;100.00
56198;BME280;42700;42.524;12.052;2023-04-24T08:57:37;117553.00;;;21.97;100.00
56198;BME280;42700;42.524;12.052;2023-04-24T09:00:05;119802.31;;;22.79;100.00
56198;BME280;42700;42.524;12.052;2023-04-24T09:02:31;120624.38;;;23.22;100.00
56198;BME280;42700;42.524;12.052;2023-04-24T09:04:57;120454.91;;;23.38;100.00
56198;BME280;42700;42.524;12.052;2023-04-24T09:07:24;118265.38;;;22.93;100.00
56198;BME280;42700;42.524;12.052;2023-04-24T09:09:51;117418.59;;;22.76;100.00
56198;BME280;42700;42.524;12.052;2023-04-24T09:12:17;117339.38;;;22.80;100.00
56198;BME280;42700;42.524;12.052;2023-04-24T09:14:42;119728.03;;;23.72;100.00
56198;BME280;42700;42.524;12.052;2023-04-24T09:17:10;118792.09;;;23.70;100.00
56198;BME280;42700;42.524;12.052;2023-04-24T09:19:36;117798.22;;;23.55;100.00
56198;BME280;42700;42.524;12.052;2023-04-24T09:22:04;114251.75;;;22.51;100.00
56198;BME280;42700;42.524;12.052;2023-04-24T09:24:30;111792.28;;;21.74;100.00
56198;BME280;42700;42.524;12.052;2023-04-24T09:26:56;110892.41;;;21.41;100.00
56198;BME280;42700;42.524;12.052;2023-04-24T09:29:26;112815.28;;;21.93;100.00
56198;BME280;42700;42.524;12.052;2023-04-24T09:31:52;115168.50;;;22.71;100.00
56198;BME280;42700;42.524;12.052;2023-04-24T09:34:21;117120.06;;;23.40;100.00
56198;BME280;42700;42.524;12.052;2023-04-24T09:36:47;117277.59;;;23.65;100.00
56198;BME280;42700;42.524;12.052;2023-04-24T09:39:14;116707.88;;;23.60;100.00
56198;BME280;42700;42.524;12.052;2023-04-24T09:41:51;115602.88;;;23.38;100.00
56198;BME280;42700;42.524;12.052;2023-04-24T09:44:17;116243.03;;;23.66;100.00
56198;BME280;42700;42.524;12.052;2023-04-24T09:46:45;116649.50;;;23.94;100.00
56198;BME280;42700;42.524;12.052;2023-04-24T09:49:14;117793.50;;;24.49;100.00
56198;BME280;42700;42.524;12.052;2023-04-24T09:51:43;117131.91;;;24.44;100.00
56198;BME280;42700;42.524;12.052;2023-04-24T09:54:15;117409.34;;;24.73;100.00
56198;BME280;42700;42.524;12.052;2023-04-24T09:56:45;117486.41;;;24.92;100.00
56198;BME280;42700;42.524;12.052;2023-04-24T09:59:11;116771.09;;;24.89;100.00
56198;BME280;42700;42.524;12.052;2023-04-24T10:01:37;115553.69;;;24.72;100.00
56198;BME280;42700;42.524;12.052;2023-04-24T10:04:03;112805.53;;;23.93;100.00
56198;BME280;42700;42.524;12.052;2023-04-24T10:06:33;111194.38;;;23.42;100.00
56198;BME280;42700;42.524;12.052;2023-04-24T10:08:59;113577.59;;;24.04;100.00
56198;BME280;42700;42.524;12.052;2023-04-24T10:11:27;115670.47;;;24.76;100.00
56198;BME280;42700;42.524;12.052;2023-04-24T10:13:53;116818.91;;;25.22;100.00
56198;BME280;42700;42.524;12.052;2023-04-24T10:16:19;116738.63;;;25.44;100.00
56198;BME280;42700;42.524;12.052;2023-04-24T10:18:45;117373.19;;;25.87;100.00
56198;BME280;42700;42.524;12.052;2023-04-24T10:21:13;113286.66;;;24.74;100.00
56198;BME280;42700;42.524;12.052;2023-04-24T10:23:39;116448.09;;;25.82;100.00
56198;BME280;42700;42.524;12.052;2023-04-24T10:26:06;115111.69;;;25.55;100.00
56198;BME280;42700;42.524;12.052;2023-04-24T10:28:34;111421.97;;;24.51;100.00
56198;BME280;42700;42.524;12.052;2023-04-24T10:31:01;112646.88;;;24.85;100.00
56198;BME280;42700;42.524;12.052;2023-04-24T10:33:27;114269.94;;;25.43;100.00
56198;BME280;42700;42.524;12.052;2023-04-24T10:35:53;113127.59;;;25.15;100.00
56198;BME280;42700;42.524;12.052;2023-04-24T10:38:22;114948.56;;;25.73;100.00
56198;BME280;42700;42.524;12.052;2023-04-24T10:40:50;115193.28;;;26.01;100.00
56198;BME280;42700;42.524;12.052;2023-04-24T10:43:16;115698.53;;;26.36;100.00
56198;BME280;42700;42.524;12.052;2023-04-24T10:45:42;116407.00;;;26.81;100.00
56198;BME280;42700;42.524;12.052;2023-04-24T10:48:26;116196.44;;;27.09;100.00
56198;BME280;42700;42.524;12.052;2023-04-24T10:50:52;115755.50;;;27.16;100.00
56198;BME280;42700;42.524;12.052;2023-04-24T10:53:21;110826.13;;;25.97;100.00
56198;BME280;42700;42.524;12.052;2023-04-24T10:55:52;111715.94;;;26.24;100.00
56198;BME280;42700;42.524;12.052;2023-04-24T10:58:22;110428.41;;;25.88;100.00
56198;BME280;42700;42.524;12.052;2023-04-24T11:00:58;111457.44;;;26.23;100.00
56198;BME280;42700;42.524;12.052;2023-04-24T11:03:28;110765.53;;;26.12;100.00
56198;BME280;42700;42.524;12.052;2023-04-24T11:05:58;107470.19;;;25.18;100.00
56198;BME280;42700;42.524;12.052;2023-04-24T11:08:27;103471.94;;;23.94;100.00
56198;BME280;42700;42.524;12.052;2023-04-24T11:10:58;101088.09;;;23.19;100.00
56198;BME280;42700;42.524;12.052;2023-04-24T11:13:24;98611.28;;;22.42;100.00
56198;BME280;42700;42.524;12.052;2023-04-24T11:18:37;92605.50;;;20.41;100.00
56198;BME280;42700;42.524;12.052;2023-04-24T11:21:22;90859.81;;;19.76;100.00
56198;BME280;42700;42.524;12.052;2023-04-24T11:23:47;90277.94;;;19.46;100.00
56198;BME280;42700;42.524;12.052;2023-04-24T11:26:22;89670.91;;;19.18;100.00
56198;BME280;42700;42.524;12.052;2023-04-24T11:28:55;88061.66;;;18.60;100.00
56198;BME280;42700;42.524;12.052;2023-04-24T11:34:07;87694.09;;;18.19;100.00
56198;BME280;42700;42.524;12.052;2023-04-24T11:36:34;87632.59;;;17.95;100.00
56198;BME280;42700;42.524;12.052;2023-04-24T11:39:00;89277.09;;;18.22;100.00
56198;BME280;42700;42.524;12.052;2023-04-24T11:41:26;88746.44;;;17.93;100.00
56198;BME280;42700;42.524;12.052;2023-04-24T11:43:52;89654.47;;;17.88;100.00
56198;BME280;42700;42.524;12.052;2023-04-24T11:46:20;88391.69;;;17.31;100.00
56198;BME280;42700;42.524;12.052;2023-04-24T11:48:45;89407.59;;;17.37;100.00
56198;BME280;42700;42.524;12.052;2023-04-24T11:51:12;91233.31;;;17.79;100.00
56198;BME280;42700;42.524;12.052;2023-04-24T11:53:37;93544.38;;;18.35;100.00
56198;BME280;42700;42.524;12.052;2023-04-24T11:56:03;96436.03;;;19.07;100.00
56198;BME280;42700;42.524;12.052;2023-04-24T11:58:34;101077.06;;;20.38;100.00
56198;BME280;42700;42.524;12.052;2023-04-24T12:00:59;105044.47;;;21.64;100.00
56198;BME280;42700;42.524;12.052;2023-04-24T12:03:26;103524.28;;;21.00;100.00
56198;BME280;42700;42.524;12.052;2023-04-24T12:05:51;103978.50;;;20.98;100.00
56198;BME280;42700;42.524;12.052;2023-04-24T12:08:26;111674.63;;;23.41;100.00
56198;BME280;42700;42.524;12.052;2023-04-24T12:10:52;114258.47;;;24.48;100.00
56198;BME280;42700;42.524;12.052;2023-04-24T12:13:18;116759.28;;;25.49;100.00
56198;BME280;42700;42.524;12.052;2023-04-24T12:15:43;119058.97;;;26.42;100.00
56198;BME280;42700;42.524;12.052;2023-04-24T12:18:11;120418.66;;;27.36;100.00
56198;BME280;42700;42.524;12.052;2023-04-24T12:20:37;120899.88;;;28.03;100.00
56198;BME280;42700;42.524;12.052;2023-04-24T12:23:03;112806.81;;;25.80;100.00
56198;BME280;42700;42.524;12.052;2023-04-24T12:25:32;111441.69;;;25.13;100.00
56198;BME280;42700;42.524;12.052;2023-04-24T12:30:30;105166.41;;;22.95;100.00
56198;BME280;42700;42.524;12.052;2023-04-24T12:32:57;109851.31;;;24.14;100.00
56198;BME280;42700;42.524;12.052;2023-04-24T12:35:23;107321.38;;;23.55;100.00
56198;BME280;42700;42.524;12.052;2023-04-24T12:37:49;106180.03;;;23.23;100.00